Time;durP1;ratioP1;P1;durP2;ratioP2;P2;SDS_P1;SDS_P2;PMS_P1;PMS_P2;Temp;Humidity;BMP_temperature;BMP_pressure;BME280_temperature;BME280_humidity;BME280_pressure;Samples;Min_cycle;Max_cycle;Signal;HPM_P1;HPM_P2
2023/11/26 06:02:58;1415138.00;4.72;2484.43;0.00;0.00;0.62;;;;;7.00;1.00;;;;;;2514420;40;3464;31
2023/11/26 08:20:10;677942.00;2.26;1169.01;0.00;0.00;0.62;;;;;7.50;1.00;;;;;;2278953;61;1007;-91
2023/11/26 08:22:45;263745.00;0.88;455.59;96967.00;0.32;168.34;;;;;6.70;1.00;;;;;;2502762;55;4025;31
2023/11/26 08:27:45;709486.00;2.36;1223.69;78683.00;0.26;136.76;;;;;6.40;1.00;;;;;;2274857;61;1308;-91
2023/11/26 11:14:15;409129.00;1.36;705.50;0.00;0.00;0.62;;;;;9.00;1.00;;;;;;2283177;61;1073;-93
2023/11/26 11:19:49;272372.00;0.91;470.42;0.00;0.00;0.62;;;;;9.00;1.00;;;;;;2279416;61;1320;-90
2023/11/26 11:35:28;310358.00;1.03;535.72;0.00;0.00;0.62;;;;;8.70;1.00;;;;;;2281535;60;1416;-87
2023/11/26 11:38:05;648628.00;2.16;1118.26;62722.00;0.21;109.18;;;;;8.50;1.00;;;;;;2275627;61;1548;-87
2023/11/26 11:40:58;646103.00;2.15;1113.89;13435.00;0.04;23.90;;;;;8.20;1.00;;;;;;2276653;61;2157;-88
2023/11/26 11:43:25;275959.00;0.92;476.59;0.00;0.00;0.62;;;;;7.90;1.00;;;;;;2276763;61;1061;-90
2023/11/26 11:45:52;857608.00;2.86;1481.78;22803.00;0.08;40.12;;;;;7.80;1.00;;;;;;2276594;61;1355;-87
2023/11/26 11:48:56;292564.00;0.98;505.14;0.00;0.00;0.62;;;;;8.10;1.00;;;;;;2276580;61;944;-86
2023/11/26 11:59:03;538608.00;1.80;928.32;84644.00;0.28;147.06;;;;;8.80;1.00;;;;;;2282886;61;1047;-89
2023/11/26 12:11:32;691274.00;2.30;1192.11;91566.00;0.31;159.01;;;;;9.60;1.00;;;;;;2283823;55;3674;-87
2023/11/26 12:13:58;395161.00;1.32;681.49;85570.00;0.29;148.66;;;;;9.30;1.00;;;;;;2280448;60;1985;-87
2023/11/26 12:18:56;383284.00;1.28;661.07;90889.00;0.30;157.84;;;;;9.40;1.00;;;;;;2282499;60;1402;-86
2023/11/26 12:21:23;256503.00;0.86;443.13;89504.00;0.30;155.45;;;;;9.20;1.00;;;;;;2280595;60;1036;-86
2023/11/26 12:23:50;367954.00;1.23;634.72;88550.00;0.30;153.80;;;;;9.50;1.00;;;;;;2280476;60;950;-89
2023/11/26 12:28:48;485741.00;1.62;837.28;87438.00;0.29;151.88;;;;;8.70;1.00;;;;;;2282228;60;2022;-89
2023/11/26 12:36:23;2224383.00;7.41;4095.70;135084.00;0.45;234.10;;;;;9.50;1.00;;;;;;2321099;56;3593;-87
2023/11/26 12:38:50;119181488.00;397.27;68576080.00;82557.00;0.28;143.45;;;;;9.70;1.00;;;;;;2280377;60;1725;-86
2023/11/26 12:41:18;117487800.00;391.63;65691284.00;96723.00;0.32;167.92;;;;;9.50;1.00;;;;;;2280416;60;2399;-90
2023/11/26 12:43:45;575522.00;1.92;991.97;90699.00;0.30;157.51;;;;;8.70;1.00;;;;;;2289316;39;3610;-86
2023/11/26 12:46:13;435480.00;1.45;750.81;68234.00;0.23;118.71;;;;;9.20;1.00;;;;;;2274866;61;1471;-89
2023/11/26 12:53:40;575556.00;1.92;992.03;96332.00;0.32;167.24;;;;;9.00;1.00;;;;;;2281964;60;1973;-88
2023/11/26 13:01:24;1000497.00;3.33;1733.35;124155.00;0.41;215.25;;;;;9.20;1.00;;;;;;2297414;55;3669;-85
2023/11/26 13:06:25;1234427.00;4.11;2152.59;5055.00;0.02;9.38;;;;;9.30;1.00;;;;;;2162923;56;3590;-86
2023/11/26 13:09:03;1150022.00;3.83;2000.12;103515.00;0.35;179.64;;;;;9.20;1.00;;;;;;2276342;61;978;-87
2023/11/26 13:11:34;356025.00;1.19;614.22;19676.00;0.07;34.71;;;;;8.60;1.00;;;;;;2276374;61;1267;-88
2023/11/26 13:19:03;67644.00;0.23;117.69;0.00;0.00;0.62;;;;;8.90;1.00;;;;;;2278238;61;1414;-86
2023/11/26 13:21:30;154782.00;0.52;268.05;44132.00;0.15;77.04;;;;;8.90;1.00;;;;;;2276304;61;1079;-87
2023/11/26 13:26:27;95983.00;0.32;166.64;0.00;0.00;0.62;;;;;8.60;1.00;;;;;;2278593;61;1447;-89
2023/11/26 13:28:54;23919.00;0.08;42.06;0.00;0.00;0.62;;;;;8.40;1.00;;;;;;2276335;61;1082;-89
2023/11/26 13:36:18;208432.00;0.69;360.44;0.00;0.00;0.62;;;;;8.40;1.00;;;;;;2278597;61;1411;-85
2023/11/26 13:41:18;287660.00;0.96;496.71;0.00;0.00;0.62;;;;;9.00;1.00;;;;;;2278256;61;1335;-87
2023/11/26 13:46:23;139348.00;0.46;241.45;0.00;0.00;0.62;;;;;8.60;1.00;;;;;;812306;59;1723;-87
2023/11/26 13:48:50;31457.00;0.10;55.10;0.00;0.00;0.62;;;;;8.20;1.00;;;;;;2280642;55;3725;-89
2023/11/26 13:51:19;109338.00;0.36;189.69;0.00;0.00;0.62;;;;;8.40;1.00;;;;;;2284235;60;1106;-87
2023/11/26 13:53:46;0.00;0.00;0.62;0.00;0.00;0.62;;;;;8.00;1.00;;;;;;2284174;60;2009;-87
2023/11/26 14:11:16;543708.00;1.81;937.11;55924.00;0.19;97.43;;;;;8.20;1.00;;;;;;2282304;61;1756;-89
2023/11/26 14:13:43;55661.00;0.19;96.98;0.00;0.00;0.62;;;;;8.30;1.00;;;;;;2279882;60;2012;-85
2023/11/26 14:16:15;210162.00;0.70;363.41;5305.00;0.02;9.81;;;;;8.40;1.00;;;;;;2276892;60;1352;-87
2023/11/26 14:18:42;48075.00;0.16;83.86;0.00;0.00;0.62;;;;;8.40;1.00;;;;;;2275982;61;1567;-86
2023/11/26 14:21:11;167195.00;0.56;289.43;9369.00;0.03;16.86;;;;;8.60;1.00;;;;;;2276068;61;1033;-87
2023/11/26 14:23:38;23490.00;0.08;41.31;0.00;0.00;0.62;;;;;8.50;1.00;;;;;;2275945;61;1045;-88
2023/11/26 14:26:06;164291.00;0.55;284.43;0.00;0.00;0.62;;;;;8.50;1.00;;;;;;2275764;61;2226;-87
2023/11/26 14:28:35;164979.00;0.55;285.62;0.00;0.00;0.62;;;;;8.30;1.00;;;;;;2275881;61;1110;-88
2023/11/26 14:31:03;120800.00;0.40;209.46;0.00;0.00;0.62;;;;;8.50;1.00;;;;;;2275935;61;942;-87
2023/11/26 14:33:31;220389.00;0.73;381.01;0.00;0.00;0.62;;;;;8.50;1.00;;;;;;2275891;61;1992;-87
2023/11/26 14:35:58;91027.00;0.30;158.08;0.00;0.00;0.62;;;;;8.50;1.00;;;;;;2275876;61;1375;-88
2023/11/26 14:38:25;136283.00;0.45;236.16;0.00;0.00;0.62;;;;;8.50;1.00;;;;;;2276032;61;998;-84
2023/11/26 14:40:52;56610.00;0.19;98.62;0.00;0.00;0.62;;;;;8.90;1.00;;;;;;2275968;61;1078;-87
2023/11/26 14:43:19;45867.00;0.15;80.04;0.00;0.00;0.62;;;;;8.80;1.00;;;;;;2275943;61;1581;-88
2023/11/26 14:45:48;105509.00;0.35;183.08;0.00;0.00;0.62;;;;;8.50;1.00;;;;;;2275978;61;1399;-89
2023/11/26 14:48:15;190534.00;0.64;329.63;0.00;0.00;0.62;;;;;8.60;1.00;;;;;;2275967;61;930;-88
2023/11/26 14:50:43;166690.00;0.56;288.56;0.00;0.00;0.62;;;;;8.50;1.00;;;;;;2275974;61;1542;-89
2023/11/26 14:53:10;19125.00;0.06;33.75;0.00;0.00;0.62;;;;;8.70;1.00;;;;;;2275912;61;1996;-88
2023/11/26 14:55:37;231446.00;0.77;400.04;0.00;0.00;0.62;;;;;8.80;1.00;;;;;;2275981;61;1365;-87
2023/11/26 14:58:04;428591.00;1.43;738.96;157839.00;0.53;273.32;;;;;8.80;1.00;;;;;;2275998;61;1131;-87
2023/11/26 15:00:31;48415.00;0.16;84.44;0.00;0.00;0.62;;;;;8.70;1.00;;;;;;2276386;61;1067;-87
2023/11/26 15:03:00;109687.00;0.37;190.29;19602.00;0.07;34.58;;;;;8.40;1.00;;;;;;2276637;61;1092;-85
2023/11/26 15:05:27;51172.00;0.17;89.21;0.00;0.00;0.62;;;;;8.50;1.00;;;;;;2276558;61;1376;-87
2023/11/26 15:07:53;28868.00;0.10;50.62;0.00;0.00;0.62;;;;;8.70;1.00;;;;;;2276456;61;2046;-89
2023/11/26 15:10:20;170375.00;0.57;294.91;0.00;0.00;0.62;;;;;8.50;1.00;;;;;;2276514;61;1036;-86
2023/11/26 15:12:47;142882.00;0.48;247.54;0.00;0.00;0.62;;;;;8.70;1.00;;;;;;2276541;61;2281;-88
2023/11/26 15:15:14;35222.00;0.12;61.62;0.00;0.00;0.62;;;;;8.50;1.00;;;;;;2276601;61;1383;-88
2023/11/26 15:17:41;107252.00;0.36;186.09;0.00;0.00;0.62;;;;;8.50;1.00;;;;;;2276454;61;1116;-88
2023/11/26 15:20:11;8633.00;0.03;15.58;0.00;0.00;0.62;;;;;8.40;1.00;;;;;;2276574;61;1051;-86
2023/11/26 15:22:40;98035.00;0.33;170.18;0.00;0.00;0.62;;;;;8.80;1.00;;;;;;2276710;61;1102;-88
2023/11/26 15:25:07;74473.00;0.25;129.49;0.00;0.00;0.62;;;;;8.80;1.00;;;;;;2276659;61;1356;-88
2023/11/26 15:27:34;121992.00;0.41;211.52;20809.00;0.07;36.67;;;;;8.70;1.00;;;;;;2276670;61;1055;-88
2023/11/26 15:30:01;29569.00;0.10;51.84;0.00;0.00;0.62;;;;;8.70;1.00;;;;;;2276677;61;1030;-88
2023/11/26 15:32:29;32071.00;0.11;56.17;0.00;0.00;0.62;;;;;8.40;1.00;;;;;;2276590;61;2002;-88
2023/11/26 15:34:57;53588.00;0.18;93.39;0.00;0.00;0.62;;;;;8.30;1.00;;;;;;2276584;61;2250;-88
2023/11/26 15:37:25;149094.00;0.50;258.25;0.00;0.00;0.62;;;;;8.50;1.00;;;;;;2276670;61;1095;-89
2023/11/26 15:39:52;234451.00;0.78;405.21;0.00;0.00;0.62;;;;;8.60;1.00;;;;;;2276682;61;1684;-88
2023/11/26 15:42:19;60977.00;0.20;106.17;0.00;0.00;0.62;;;;;8.50;1.00;;;;;;2276632;61;1581;-88
2023/11/26 15:44:46;35054.00;0.12;61.33;0.00;0.00;0.62;;;;;8.30;1.00;;;;;;2276573;61;1305;-88
2023/11/26 15:47:13;106635.00;0.36;185.02;0.00;0.00;0.62;;;;;8.00;1.00;;;;;;2276705;61;1232;-89
2023/11/26 15:49:40;410914.00;1.37;708.57;124863.00;0.42;216.47;;;;;8.10;1.00;;;;;;2276478;61;1691;-89
2023/11/26 15:52:07;54246.00;0.18;94.53;0.00;0.00;0.62;;;;;8.30;1.00;;;;;;2276721;61;1010;-87
2023/11/26 15:54:36;261995.00;0.87;452.58;26108.00;0.09;45.85;;;;;8.40;1.00;;;;;;2276641;61;2006;-89
2023/11/26 15:57:03;19562.00;0.07;34.51;0.00;0.00;0.62;;;;;8.40;1.00;;;;;;2276696;61;1253;-88
2023/11/26 15:59:30;0.00;0.00;0.62;0.00;0.00;0.62;;;;;8.40;1.00;;;;;;2276710;61;1994;-89
2023/11/26 16:02:00;145924.00;0.49;252.78;0.00;0.00;0.62;;;;;8.40;1.00;;;;;;2276636;61;2177;-88
2023/11/26 16:04:27;75287.00;0.25;130.90;0.00;0.00;0.62;;;;;8.60;1.00;;;;;;2276628;61;1275;-87
2023/11/26 16:06:54;41013.00;0.14;71.64;0.00;0.00;0.62;;;;;9.00;1.00;;;;;;2276535;61;966;-88
2023/11/26 16:09:21;8634.00;0.03;15.58;0.00;0.00;0.62;;;;;8.80;1.00;;;;;;2276170;61;2266;-86
2023/11/26 16:11:49;144737.00;0.48;250.74;0.00;0.00;0.62;;;;;9.00;1.00;;;;;;2276020;61;1148;-87
2023/11/26 16:14:16;210743.00;0.70;364.41;0.00;0.00;0.62;;;;;9.10;1.00;;;;;;2276645;61;1915;-87
2023/11/26 16:16:43;71043.00;0.24;123.56;3320.00;0.01;6.37;;;;;9.10;1.00;;;;;;2281069;40;3662;-87
2023/11/26 16:19:10;73102.00;0.24;127.12;0.00;0.00;0.62;;;;;9.00;1.00;;;;;;2280638;60;1036;-88
2023/11/26 16:21:41;259838.00;0.87;448.87;20614.00;0.07;36.33;;;;;9.00;1.00;;;;;;2280685;60;898;-84
2023/11/26 16:24:08;39654.00;0.13;69.29;0.00;0.00;0.62;;;;;8.90;1.00;;;;;;2280418;60;1695;-87
2023/11/26 16:26:40;86756.00;0.29;150.71;0.00;0.00;0.62;;;;;9.10;1.00;;;;;;2276828;61;1279;-88
2023/11/26 16:29:09;48877.00;0.16;85.24;0.00;0.00;0.62;;;;;9.10;1.00;;;;;;2276538;61;2365;-87
2023/11/26 16:31:40;20209.00;0.07;35.63;0.00;0.00;0.62;;;;;9.30;1.00;;;;;;2276581;61;1065;-88
2023/11/26 16:34:08;200648.00;0.67;347.04;0.00;0.00;0.62;;;;;9.10;1.00;;;;;;2276491;61;1917;-87
2023/11/26 16:36:35;18619.00;0.06;32.88;0.00;0.00;0.62;;;;;9.00;1.00;;;;;;2276470;61;2163;-87
2023/11/26 16:39:08;43911.00;0.15;76.65;0.00;0.00;0.62;;;;;9.10;1.00;;;;;;2276434;61;1554;-86
2023/11/26 16:41:35;62591.00;0.21;108.96;0.00;0.00;0.62;;;;;8.90;1.00;;;;;;2276530;61;1031;-87
2023/11/26 16:44:02;30925.00;0.10;54.18;0.00;0.00;0.62;;;;;8.70;1.00;;;;;;2276518;61;2228;-87
2023/11/26 16:46:31;38527.00;0.13;67.34;0.00;0.00;0.62;;;;;8.60;1.00;;;;;;2276497;61;1357;-88
2023/11/26 16:48:58;127112.00;0.42;220.35;0.00;0.00;0.62;;;;;8.80;1.00;;;;;;2276406;61;1673;-86
2023/11/26 16:51:27;202259.00;0.67;349.81;0.00;0.00;0.62;;;;;8.90;1.00;;;;;;2276484;61;1055;-86
2023/11/26 16:53:54;12998.00;0.04;23.14;0.00;0.00;0.62;;;;;8.80;1.00;;;;;;2276477;61;1919;-86
2023/11/26 16:56:21;48469.00;0.16;84.54;0.00;0.00;0.62;;;;;8.70;1.00;;;;;;2276428;61;2183;-87
2023/11/26 16:58:48;126287.00;0.42;218.93;0.00;0.00;0.62;;;;;8.80;1.00;;;;;;2276363;61;1044;-87
2023/11/26 17:01:15;0.00;0.00;0.62;0.00;0.00;0.62;;;;;8.40;1.00;;;;;;2276495;61;1103;-87
2023/11/26 17:03:44;201958.00;0.67;349.29;56805.00;0.19;98.95;;;;;8.30;1.00;;;;;;2276445;61;1143;-87
2023/11/26 17:06:11;123974.00;0.41;214.94;0.00;0.00;0.62;;;;;8.20;1.00;;;;;;2276367;61;2215;-87
2023/11/26 17:08:38;88814.00;0.30;154.26;0.00;0.00;0.62;;;;;8.40;1.00;;;;;;2276454;61;1952;-87
2023/11/26 17:11:05;29821.00;0.10;52.27;0.00;0.00;0.62;;;;;8.30;1.00;;;;;;2276343;61;938;-87
2023/11/26 17:13:32;73245.00;0.24;127.37;0.00;0.00;0.62;;;;;8.10;1.00;;;;;;2276311;61;1915;-87
2023/11/26 17:15:59;44170.00;0.15;77.10;0.00;0.00;0.62;;;;;8.30;1.00;;;;;;2276373;61;1304;-89
2023/11/26 17:18:30;219542.00;0.73;379.56;0.00;0.00;0.62;;;;;8.10;1.00;;;;;;2276411;61;1079;-87
2023/11/26 17:20:59;56961.00;0.19;99.22;0.00;0.00;0.62;;;;;8.00;1.00;;;;;;2276368;61;1441;-87
2023/11/26 17:23:26;52684.00;0.18;91.83;0.00;0.00;0.62;;;;;8.10;1.00;;;;;;2276184;61;1118;-87
2023/11/26 17:25:55;60289.00;0.20;104.98;0.00;0.00;0.62;;;;;7.80;1.00;;;;;;2276343;61;2177;-86
2023/11/26 17:28:22;164031.00;0.55;283.98;51436.00;0.17;89.67;;;;;8.10;1.00;;;;;;2276352;61;1759;-88
2023/11/26 17:30:49;39582.00;0.13;69.17;0.00;0.00;0.62;;;;;8.30;1.00;;;;;;2276315;61;1016;-87
2023/11/26 17:33:16;107339.00;0.36;186.24;0.00;0.00;0.62;;;;;8.30;1.00;;;;;;2276334;61;1917;-87
2023/11/26 17:35:43;137108.00;0.46;237.59;0.00;0.00;0.62;;;;;7.80;1.00;;;;;;2276254;61;2659;-87
2023/11/26 17:38:11;109385.00;0.36;189.77;0.00;0.00;0.62;;;;;8.10;1.00;;;;;;2276343;61;1050;-86
2023/11/26 17:40:38;30848.00;0.10;54.05;0.00;0.00;0.62;;;;;8.50;1.00;;;;;;2276219;61;1066;-87
2023/11/26 17:43:05;29085.00;0.10;51.00;0.00;0.00;0.62;;;;;9.10;1.00;;;;;;2302882;56;3787;-87
2023/11/26 17:45:33;62291.00;0.21;108.44;0.00;0.00;0.62;;;;;9.50;1.00;;;;;;2278023;60;1309;-86
2023/11/26 17:48:00;40899.00;0.14;71.44;0.00;0.00;0.62;;;;;9.80;1.00;;;;;;2275948;61;1014;-86
2023/11/26 17:50:28;56409.00;0.19;98.27;0.00;0.00;0.62;;;;;9.80;1.00;;;;;;2275948;61;1566;-87
2023/11/26 17:52:55;0.00;0.00;0.62;0.00;0.00;0.62;;;;;9.70;1.00;;;;;;2276052;61;1171;-86
2023/11/26 17:55:24;23710.00;0.08;41.69;0.00;0.00;0.62;;;;;9.50;1.00;;;;;;2275876;61;1920;-86
2023/11/26 17:57:51;56827.00;0.19;98.99;0.00;0.00;0.62;;;;;9.70;1.00;;;;;;2275716;61;1122;-86
2023/11/26 18:00:19;48404.00;0.16;84.43;0.00;0.00;0.62;;;;;10.00;1.00;;;;;;2275809;61;1402;-86
2023/11/26 18:02:46;57586.00;0.19;100.30;0.00;0.00;0.62;;;;;9.80;1.00;;;;;;2276006;61;1038;-85
2023/11/26 18:05:13;89308.00;0.30;155.11;0.00;0.00;0.62;;;;;9.60;1.00;;;;;;2275941;61;1339;-85
2023/11/26 18:07:40;103201.00;0.34;179.10;8042.00;0.03;14.56;;;;;9.20;1.00;;;;;;2275959;61;1077;-87
2023/11/26 18:10:07;105652.00;0.35;183.33;0.00;0.00;0.62;;;;;9.10;1.00;;;;;;2275976;61;1023;-87
2023/11/26 18:12:36;7530.00;0.03;13.67;0.00;0.00;0.62;;;;;9.00;1.00;;;;;;2275974;61;1024;-87
2023/11/26 18:15:03;284550.00;0.95;491.36;24657.00;0.08;43.33;;;;;8.60;1.00;;;;;;2275775;61;1919;-87
2023/11/26 18:17:29;66143.00;0.22;115.09;0.00;0.00;0.62;;;;;8.40;1.00;;;;;;2275927;61;1152;-86
2023/11/26 18:19:56;59451.00;0.20;103.53;0.00;0.00;0.62;;;;;8.60;1.00;;;;;;2275861;61;1025;-88
2023/11/26 18:22:23;72061.00;0.24;125.32;0.00;0.00;0.62;;;;;9.10;1.00;;;;;;2275864;61;1716;-87
2023/11/26 18:24:50;159954.00;0.53;276.96;0.00;0.00;0.62;;;;;9.20;1.00;;;;;;2275908;61;1356;-86
2023/11/26 18:27:17;18793.00;0.06;33.18;0.00;0.00;0.62;;;;;9.20;1.00;;;;;;2275905;61;1110;-86
2023/11/26 18:29:48;133882.00;0.45;232.02;10196.00;0.03;18.29;;;;;9.10;1.00;;;;;;2275920;61;1076;-86
2023/11/26 18:32:14;31886.00;0.11;55.85;0.00;0.00;0.62;;;;;9.00;1.00;;;;;;2275927;61;1087;-88
2023/11/26 18:34:41;67386.00;0.22;117.24;0.00;0.00;0.62;;;;;9.00;1.00;;;;;;2276086;61;2000;-86
2023/11/26 18:37:08;801052.00;2.67;1382.96;47257.00;0.16;82.44;;;;;9.10;1.00;;;;;;2276684;61;1716;-87
2023/11/26 18:39:38;703792.00;2.35;1213.81;67218.00;0.22;116.95;;;;;8.80;1.00;;;;;;2276681;61;1018;-87
2023/11/26 18:42:05;484947.00;1.62;835.91;41062.00;0.14;71.73;;;;;8.40;1.00;;;;;;2248557;61;1726690;-86
2023/11/26 18:44:32;575447.00;1.92;991.84;35155.00;0.12;61.50;;;;;8.50;1.00;;;;;;2276830;61;1643;-86
2023/11/26 18:47:00;677617.00;2.26;1168.45;116036.00;0.39;201.24;;;;;8.40;1.00;;;;;;2276921;61;1083;-87
2023/11/26 18:49:27;691923.00;2.31;1193.23;54983.00;0.18;95.80;;;;;8.40;1.00;;;;;;2276861;61;992;-86
2023/11/26 18:51:54;571292.00;1.90;984.68;34373.00;0.11;60.15;;;;;8.60;1.00;;;;;;2276920;61;1026;-87
2023/11/26 18:54:21;1245863.00;4.15;2173.36;97663.00;0.33;169.54;;;;;8.80;1.00;;;;;;2276784;61;1911;-84
2023/11/26 18:56:48;950997.00;3.17;1645.87;186116.00;0.62;322.02;;;;;9.20;1.00;;;;;;2286924;40;3572;-87
2023/11/26 19:01:44;1072508.00;3.58;1861.33;45409.00;0.15;79.25;;;;;9.10;1.00;;;;;;2282476;60;1403;-87
2023/11/26 19:04:13;1191168.00;3.97;2074.26;91681.00;0.31;159.21;;;;;8.70;1.00;;;;;;2285475;55;3762;-87
2023/11/26 19:06:39;883426.00;2.94;1527.03;42127.00;0.14;73.57;;;;;8.90;1.00;;;;;;2276953;61;1297;-87
2023/11/26 19:09:07;876516.00;2.92;1514.91;41911.00;0.14;73.19;;;;;9.10;1.00;;;;;;2276760;61;1095;-87
2023/11/26 19:11:34;1057683.00;3.53;1834.91;17333.00;0.06;30.65;;;;;9.20;1.00;;;;;;2276742;61;1557;-86
2023/11/26 19:14:02;1044337.00;3.48;1811.16;39494.00;0.13;69.01;;;;;9.20;1.00;;;;;;2273179;61;1992;-88
2023/11/26 19:16:28;920167.00;3.07;1591.57;60120.00;0.20;104.68;;;;;9.20;1.00;;;;;;2276779;61;1578;-88
2023/11/26 19:18:56;1037231.00;3.46;1798.53;65219.00;0.22;113.50;;;;;9.30;1.00;;;;;;2276791;61;1039;-87
2023/11/26 19:21:24;1033397.00;3.44;1791.71;9920.00;0.03;17.81;;;;;9.30;1.00;;;;;;2276817;61;1090;-85
2023/11/26 19:23:55;924286.00;3.08;1598.81;51123.00;0.17;89.13;;;;;9.20;1.00;;;;;;2276808;61;1004;-86
2023/11/26 19:26:23;1150031.00;3.83;2000.13;57030.00;0.19;99.34;;;;;9.20;1.00;;;;;;2276792;61;1329;-88
2023/11/26 19:28:51;779875.00;2.60;1346.05;45970.00;0.15;80.22;;;;;8.70;1.00;;;;;;2276795;61;1028;-86
2023/11/26 19:31:19;1010746.00;3.37;1751.51;77832.00;0.26;135.29;;;;;9.00;1.00;;;;;;2273163;61;1295;-86
2023/11/26 19:33:47;1078474.00;3.59;1871.97;88122.00;0.29;153.06;;;;;9.30;1.00;;;;;;2276674;61;1996;-86
2023/11/26 19:36:18;993330.00;3.31;1720.66;64778.00;0.22;112.74;;;;;9.30;1.00;;;;;;2276593;61;1378;-87
2023/11/26 19:38:47;867511.00;2.89;1499.13;74040.00;0.25;128.74;;;;;8.70;1.00;;;;;;2273072;61;1309;-87
2023/11/26 19:41:15;792463.00;2.64;1367.98;18850.00;0.06;33.28;;;;;8.50;1.00;;;;;;2276566;61;1134;-87
2023/11/26 19:43:42;1008523.00;3.36;1747.57;14589.00;0.05;25.90;;;;;8.20;1.00;;;;;;2280973;40;3559;-88
2023/11/26 19:46:09;868553.00;2.90;1500.95;58939.00;0.20;102.64;;;;;8.30;1.00;;;;;;2277183;60;1277;-88
2023/11/26 19:48:36;783929.00;2.61;1353.11;83461.00;0.28;145.02;;;;;8.20;1.00;;;;;;2276570;61;937;-86
2023/11/26 19:51:02;939640.00;3.13;1625.85;20316.00;0.07;35.82;;;;;8.10;1.00;;;;;;2276575;61;1515;-86
2023/11/26 19:53:30;1171441.00;3.90;2038.67;165283.00;0.55;286.14;;;;;8.10;1.00;;;;;;2276614;61;1882;-87
2023/11/26 19:56:01;866944.00;2.89;1498.14;99604.00;0.33;172.89;;;;;8.30;1.00;;;;;;2276531;61;1998;-87
2023/11/26 19:58:28;900464.00;3.00;1556.93;58576.00;0.20;102.02;;;;;8.50;1.00;;;;;;2276627;61;1026;-87
2023/11/26 20:00:57;1146770.00;3.82;1994.27;106263.00;0.35;184.38;;;;;8.30;1.00;;;;;;2276598;61;1122;-86
2023/11/26 20:03:25;1059955.00;3.53;1838.96;156311.00;0.52;270.68;;;;;8.40;1.00;;;;;;2276616;61;1103;-87
2023/11/26 20:05:52;893892.00;2.98;1545.39;34436.00;0.11;60.26;;;;;8.60;1.00;;;;;;2276598;61;1338;-89
2023/11/26 20:08:19;1190682.00;3.97;2073.38;69408.00;0.23;120.74;;;;;8.70;1.00;;;;;;2276559;61;1104;-88
2023/11/26 20:10:46;1278319.00;4.26;2232.48;177133.00;0.59;306.55;;;;;8.90;1.00;;;;;;2276574;61;1293;-87
2023/11/26 20:13:17;1216247.00;4.05;2119.62;167809.00;0.56;290.49;;;;;8.70;1.00;;;;;;2276523;61;1068;-87
2023/11/26 20:15:47;847657.00;2.83;1464.37;30223.00;0.10;52.97;;;;;8.70;1.00;;;;;;2276556;61;1994;-90
2023/11/26 20:18:13;1192413.00;3.97;2076.51;42669.00;0.14;74.51;;;;;8.90;1.00;;;;;;2276578;61;1143;-88
2023/11/26 20:20:43;1121457.00;3.74;1948.84;72463.00;0.24;126.02;;;;;8.60;1.00;;;;;;2276583;61;1048;-86
2023/11/26 20:23:11;857502.00;2.86;1481.60;32471.00;0.11;56.86;;;;;8.50;1.00;;;;;;2276549;61;1082;-87
2023/11/26 20:25:40;829093.00;2.76;1431.91;61382.00;0.20;106.87;;;;;8.30;1.00;;;;;;2276517;61;1364;-88
2023/11/26 20:28:07;864413.00;2.88;1493.70;5532.00;0.02;10.21;;;;;8.40;1.00;;;;;;2276611;61;955;-86
2023/11/26 20:30:37;931939.00;3.11;1612.29;66859.00;0.22;116.33;;;;;8.90;1.00;;;;;;2276356;61;2228;-86
2023/11/26 20:33:04;1064987.00;3.55;1847.92;7083.00;0.02;12.90;;;;;9.40;1.00;;;;;;2276178;61;1258;-85
2023/11/26 20:35:31;1088261.00;3.63;1889.44;5090.00;0.02;9.44;;;;;9.80;1.00;;;;;;2276112;61;1996;-85
2023/11/26 20:37:58;907019.00;3.02;1568.45;91432.00;0.30;158.78;;;;;10.00;1.00;;;;;;2276204;61;1075;-85
2023/11/26 20:40:25;1127700.00;3.76;1960.03;40795.00;0.14;71.26;;;;;9.90;1.00;;;;;;2276199;61;1147;-86
2023/11/26 20:42:52;990200.00;3.30;1715.12;50745.00;0.17;88.47;;;;;9.60;1.00;;;;;;2276234;61;1075;-85
2023/11/26 20:45:19;944868.00;3.15;1635.06;79257.00;0.26;137.75;;;;;9.70;1.00;;;;;;2278478;55;3760;-87
2023/11/26 20:47:47;1028462.00;3.43;1782.95;43921.00;0.15;76.67;;;;;9.60;1.00;;;;;;2276165;61;964;-85
2023/11/26 20:50:14;922057.00;3.07;1594.89;113301.00;0.38;196.53;;;;;10.00;1.00;;;;;;2276068;61;1639;-87
2023/11/26 20:52:41;1199730.00;4.00;2089.73;61895.00;0.21;107.75;;;;;10.50;1.00;;;;;;2276084;61;1501;-87
2023/11/26 20:55:10;904777.00;3.02;1564.51;82876.00;0.28;144.00;;;;;10.20;1.00;;;;;;2276106;61;1995;-87
2023/11/26 20:57:37;1077896.00;3.59;1870.94;97060.00;0.32;168.50;;;;;10.00;1.00;;;;;;2276095;61;1604;-85
2023/11/26 21:00:05;1260370.00;4.20;2199.76;109672.00;0.37;190.26;;;;;9.40;1.00;;;;;;2276096;61;1084;-86
2023/11/26 21:02:34;1327637.00;4.43;2322.77;167171.00;0.56;289.39;;;;;9.10;1.00;;;;;;2276164;61;1074;-86
2023/11/26 21:05:02;1041056.00;3.47;1805.32;11479.00;0.04;20.51;;;;;9.00;1.00;;;;;;2276175;61;1364;-87
2023/11/26 21:07:29;1399203.00;4.66;2454.85;149704.00;0.50;259.30;;;;;8.80;1.00;;;;;;2276232;61;1017;-87
2023/11/26 21:09:56;1436882.00;4.79;2524.91;182875.00;0.61;316.44;;;;;8.70;1.00;;;;;;2276118;61;1150;-85
2023/11/26 21:12:23;892615.00;2.98;1543.15;137073.00;0.46;237.52;;;;;9.00;1.00;;;;;;2276185;61;977;-86
2023/11/26 21:14:50;515922.00;1.72;889.24;78665.00;0.26;136.73;;;;;8.90;1.00;;;;;;2276071;61;1927;-86
2023/11/26 21:17:17;526113.00;1.75;906.80;83343.00;0.28;144.81;;;;;8.60;1.00;;;;;;2276126;61;1017;-85
2023/11/26 21:19:44;342644.00;1.14;591.22;91848.00;0.31;159.50;;;;;9.00;1.00;;;;;;2276120;61;1119;-86
2023/11/26 21:22:12;391475.00;1.30;675.15;94650.00;0.32;164.34;;;;;8.80;1.00;;;;;;2276166;61;1598;-87
2023/11/26 21:24:39;505067.00;1.68;870.55;89801.00;0.30;155.96;;;;;9.20;1.00;;;;;;2276092;61;1285;-87
2023/11/26 21:29:36;119742664.00;399.14;69550224.00;71584.00;0.24;124.50;;;;;9.60;1.00;;;;;;2281678;60;1420;-86
2023/11/26 21:32:03;216668.00;0.72;374.61;91570.00;0.31;159.02;;;;;9.90;1.00;;;;;;2280163;60;994;-87
2023/11/26 21:34:30;258101.00;0.86;445.88;92420.00;0.31;160.49;;;;;9.90;1.00;;;;;;2279955;60;1915;-85
2023/11/26 21:36:57;361884.00;1.21;624.29;94705.00;0.32;164.43;;;;;10.00;1.00;;;;;;2276049;61;1083;-87
2023/11/26 21:39:25;264623.00;0.88;457.10;84259.00;0.28;146.39;;;;;9.60;1.00;;;;;;2276013;61;1057;-86
2023/11/26 21:41:52;178053.00;0.59;308.14;61899.00;0.21;107.76;;;;;9.80;1.00;;;;;;2276053;61;962;-86
2023/11/26 21:44:20;208246.00;0.69;360.12;0.00;0.00;0.62;;;;;10.30;1.00;;;;;;2275989;61;1097;-85
2023/11/26 21:46:49;167151.00;0.56;289.36;27975.00;0.09;49.08;;;;;10.20;1.00;;;;;;2276035;61;1296;-86
2023/11/26 21:49:16;301573.00;1.01;520.62;94134.00;0.31;163.45;;;;;9.60;1.00;;;;;;2276063;61;960;-87
2023/11/26 21:51:42;215014.00;0.72;371.76;0.00;0.00;0.62;;;;;9.30;1.00;;;;;;2276022;61;1111;-86
2023/11/26 21:54:09;40483.00;0.13;70.72;0.00;0.00;0.62;;;;;9.50;1.00;;;;;;2276032;61;1035;-86
2023/11/26 21:56:42;362633.00;1.21;625.57;69877.00;0.23;121.55;;;;;9.80;1.00;;;;;;2276008;61;1928;-86
2023/11/26 21:59:09;7307.00;0.02;13.28;0.00;0.00;0.62;;;;;10.10;1.00;;;;;;2276017;61;913;-87
2023/11/26 22:01:36;53365.00;0.18;93.01;0.00;0.00;0.62;;;;;10.00;1.00;;;;;;2276049;61;921;-86
2023/11/26 22:04:03;29399.00;0.10;51.54;0.00;0.00;0.62;;;;;10.10;1.00;;;;;;2275984;61;937;-85
2023/11/26 22:06:30;75797.00;0.25;131.78;0.00;0.00;0.62;;;;;10.30;1.00;;;;;;2275903;61;1587;-85
2023/11/26 22:08:59;10184.00;0.03;18.27;0.00;0.00;0.62;;;;;10.20;1.00;;;;;;2275797;61;1111;-85
2023/11/26 22:11:25;55187.00;0.18;96.16;0.00;0.00;0.62;;;;;10.30;1.00;;;;;;2275916;61;2352;-85
2023/11/26 22:13:54;22319.00;0.07;39.29;0.00;0.00;0.62;;;;;10.50;1.00;;;;;;2275957;61;1003;-86
2023/11/26 22:16:21;20562.00;0.07;36.24;0.00;0.00;0.62;;;;;10.70;1.00;;;;;;2275867;61;2008;-86
2023/11/26 22:18:48;35261.00;0.12;61.69;0.00;0.00;0.62;;;;;10.90;1.00;;;;;;2275954;61;1063;-85
2023/11/26 22:21:16;12028.00;0.04;21.46;0.00;0.00;0.62;;;;;10.90;1.00;;;;;;2275974;61;963;-86
2023/11/26 22:23:43;43351.00;0.14;75.69;0.00;0.00;0.62;;;;;10.90;1.00;;;;;;2275860;61;1403;-85
2023/11/26 22:26:10;97422.00;0.32;169.12;0.00;0.00;0.62;;;;;10.90;1.00;;;;;;2275889;61;1280;-87
2023/11/26 22:28:37;198900.00;0.66;344.03;0.00;0.00;0.62;;;;;10.90;1.00;;;;;;2275829;61;1626;-87
2023/11/26 22:31:07;18949.00;0.06;33.45;0.00;0.00;0.62;;;;;11.10;1.00;;;;;;2275905;61;1127;-86